Time;durP1;ratioP1;P1;durP2;ratioP2;P2;SDS_P1;SDS_P2;PMS_P1;PMS_P2;Temp;Humidity;BMP_temperature;BMP_pressure;BME280_temperature;BME280_humidity;BME280_pressure;Samples;Min_cycle;Max_cycle;Signal;HPM_P1;HPM_P2
2021/04/27 00:01:37;;;;;;;1.73;0.43;;;13.70;41.20;;;;;;5008101;28;20026;-80
2021/04/27 00:04:04;;;;;;;1.00;0.43;;;13.70;41.30;;;;;;5009705;28;20030;-79
2021/04/27 00:06:30;;;;;;;0.90;0.30;;;13.70;41.30;;;;;;5010198;28;20024;-79
2021/04/27 00:08:56;;;;;;;1.27;0.35;;;13.60;41.30;;;;;;5010831;28;20038;-79
2021/04/27 00:11:22;;;;;;;10.02;0.60;;;13.60;41.50;;;;;;5012070;28;20367;-79
2021/04/27 00:13:48;;;;;;;0.77;0.30;;;13.50;41.60;;;;;;5010206;28;20379;-79
2021/04/27 00:16:14;;;;;;;0.75;0.45;;;13.40;41.70;;;;;;5010784;28;20045;-79
2021/04/27 00:18:40;;;;;;;1.20;0.40;;;13.40;41.80;;;;;;5011090;28;20026;-78
2021/04/27 00:21:06;;;;;;;0.98;0.50;;;13.40;41.80;;;;;;5011543;28;20053;-77
2021/04/27 00:23:33;;;;;;;1.58;0.40;;;13.40;41.80;;;;;;5011701;28;20030;-77
2021/04/27 00:25:59;;;;;;;1.58;0.38;;;13.30;41.80;;;;;;5032605;28;20033;-77
2021/04/27 00:28:25;;;;;;;1.70;0.43;;;13.30;41.90;;;;;;5009662;28;20038;-77
2021/04/27 00:30:51;;;;;;;2.45;0.40;;;13.30;41.90;;;;;;5007494;28;20483;-78
2021/04/27 00:33:17;;;;;;;3.30;0.45;;;13.30;42.00;;;;;;5007290;28;20372;-77
2021/04/27 00:35:43;;;;;;;0.20;0.13;;;13.20;41.90;;;;;;5009247;28;20391;-77
2021/04/27 00:38:10;;;;;;;0.90;0.52;;;13.20;42.00;;;;;;5009782;28;20514;-78
2021/04/27 00:40:36;;;;;;;1.00;0.50;;;13.20;42.00;;;;;;4993165;28;20038;-78
2021/04/27 00:43:02;;;;;;;1.20;0.60;;;13.10;41.90;;;;;;4992258;28;20045;-77
2021/04/27 00:45:28;;;;;;;2.38;0.43;;;13.10;42.00;;;;;;4992289;28;20041;-76
2021/04/27 00:47:56;;;;;;;3.10;0.52;;;13.10;42.10;;;;;;5009701;28;20038;-79
2021/04/27 00:50:25;;;;;;;2.20;0.40;;;13.10;42.10;;;;;;5010244;28;20034;-78
2021/04/27 00:52:51;;;;;;;1.50;0.45;;;13.10;42.10;;;;;;5010580;28;20391;-79
2021/04/27 00:55:17;;;;;;;5.40;0.77;;;13.00;42.10;;;;;;4993900;28;20049;-79
2021/04/27 00:57:43;;;;;;;3.25;0.73;;;13.00;42.20;;;;;;5010422;28;20042;-79
2021/04/27 01:00:11;;;;;;;2.80;0.32;;;13.00;42.30;;;;;;4992987;28;20419;-79
2021/04/27 01:02:38;;;;;;;0.30;0.15;;;12.90;42.40;;;;;;5008972;28;20416;-78
2021/04/27 01:05:07;;;;;;;0.60;0.10;;;12.90;42.40;;;;;;5025931;28;20026;-78
2021/04/27 01:07:35;;;;;;;2.05;0.65;;;12.80;42.50;;;;;;5007799;28;20054;-76
2021/04/27 01:10:03;;;;;;;4.05;0.65;;;12.80;42.50;;;;;;5010058;28;20483;-78
2021/04/27 01:12:41;;;;;;;0.90;0.13;;;12.70;42.60;;;;;;4991058;28;20037;-77
2021/04/27 01:15:11;;;;;;;1.27;0.30;;;12.70;42.60;;;;;;4992879;28;20045;-78
2021/04/27 01:17:37;;;;;;;1.05;0.65;;;12.70;42.70;;;;;;4992418;28;20030;-78
2021/04/27 01:20:18;;;;;;;1.60;0.52;;;12.60;42.70;;;;;;5013217;28;20494;-78
2021/04/27 01:22:59;;;;;;;1.75;0.82;;;12.60;42.70;;;;;;5007723;28;20025;-79
2021/04/27 01:25:42;;;;;;;2.42;0.98;;;12.50;43.00;;;;;;5009851;28;20510;-78
2021/04/27 01:28:08;;;;;;;0.93;0.38;;;12.50;43.00;;;;;;5007536;28;20053;-78
2021/04/27 01:30:39;;;;;;;7.55;0.85;;;12.50;42.90;;;;;;5006767;28;20034;-78
2021/04/27 01:33:27;;;;;;;0.20;0.17;;;12.50;43.00;;;;;;5009696;28;20038;-78
2021/04/27 01:35:54;;;;;;;0.95;0.65;;;12.40;43.00;;;;;;5001577;28;20030;-78
2021/04/27 01:38:20;;;;;;;0.17;0.10;;;12.40;43.00;;;;;;5010263;28;20026;-78
2021/04/27 01:40:47;;;;;;;1.15;0.68;;;12.30;43.00;;;;;;5008190;28;20033;-78
2021/04/27 01:43:13;;;;;;;0.95;0.30;;;12.30;43.10;;;;;;5008626;28;20041;-77
2021/04/27 01:45:39;;;;;;;4.88;0.30;;;12.30;43.20;;;;;;5011100;28;20041;-78
2021/04/27 01:48:06;;;;;;;0.90;0.55;;;12.20;43.30;;;;;;5012688;28;20038;-78
2021/04/27 01:50:32;;;;;;;1.35;0.38;;;12.20;43.40;;;;;;4973785;28;20399;-78
2021/04/27 01:52:58;;;;;;;1.23;0.45;;;12.10;43.60;;;;;;5037871;28;20030;-78
2021/04/27 01:55:24;;;;;;;2.58;0.73;;;12.00;43.70;;;;;;5017816;28;20395;-78
2021/04/27 01:57:50;;;;;;;2.38;0.82;;;12.00;43.80;;;;;;5011188;28;20030;-78
2021/04/27 02:00:19;;;;;;;14.48;0.90;;;11.90;43.80;;;;;;5011898;28;20030;-78
2021/04/27 02:02:45;;;;;;;1.15;0.45;;;11.90;43.80;;;;;;4991543;28;20030;-78
2021/04/27 02:05:12;;;;;;;0.63;0.43;;;11.90;43.80;;;;;;5007301;28;20045;-78
2021/04/27 02:07:38;;;;;;;4.32;0.93;;;11.90;43.80;;;;;;5010506;28;20041;-78
2021/04/27 02:10:06;;;;;;;0.40;0.20;;;11.80;43.80;;;;;;4994162;28;20045;-79
2021/04/27 02:12:32;;;;;;;1.55;0.63;;;11.80;43.90;;;;;;5012707;28;20434;-78
2021/04/27 02:14:58;;;;;;;0.82;0.65;;;11.80;43.90;;;;;;5009608;28;20033;-77
2021/04/27 02:18:04;;;;;;;8.52;1.25;;;11.80;44.00;;;;;;5031426;28;20423;-78
2021/04/27 02:20:30;;;;;;;0.43;0.17;;;11.70;44.20;;;;;;4995327;28;20042;-78
2021/04/27 02:22:57;;;;;;;1.33;0.52;;;11.60;44.20;;;;;;5009578;28;20045;-78
2021/04/27 02:25:23;;;;;;;0.90;0.28;;;11.60;44.30;;;;;;5010335;28;20061;-78
2021/04/27 02:27:52;;;;;;;1.40;0.47;;;11.50;44.30;;;;;;5006467;28;20104;-78
2021/04/27 02:30:19;;;;;;;1.13;0.40;;;11.60;44.30;;;;;;5008526;28;20418;-78
2021/04/27 02:32:46;;;;;;;0.88;0.35;;;11.60;44.30;;;;;;5018397;28;20581;-78
2021/04/27 02:35:13;;;;;;;2.25;0.77;;;11.60;44.30;;;;;;5022836;28;20041;-78
2021/04/27 02:37:40;;;;;;;0.98;0.45;;;11.60;44.30;;;;;;4994382;28;20096;-78
2021/04/27 02:40:07;;;;;;;0.77;0.32;;;11.50;44.30;;;;;;5026925;28;20457;-79
2021/04/27 02:42:34;;;;;;;0.60;0.40;;;11.50;44.40;;;;;;5018160;28;20034;-78
2021/04/27 02:45:01;;;;;;;0.50;0.15;;;11.40;44.40;;;;;;5011933;28;20046;-78
2021/04/27 02:47:27;;;;;;;1.13;0.22;;;11.50;44.40;;;;;;5012886;28;20053;-78
2021/04/27 02:49:53;;;;;;;0.98;0.28;;;11.40;44.50;;;;;;5012827;28;20040;-78
2021/04/27 02:52:19;;;;;;;2.35;0.73;;;11.40;44.40;;;;;;5020401;28;20045;-79
2021/04/27 02:54:45;;;;;;;1.73;0.47;;;11.40;44.50;;;;;;5017711;28;20045;-78
2021/04/27 02:57:11;;;;;;;0.75;0.50;;;11.40;44.50;;;;;;5010901;28;20475;-78
2021/04/27 02:59:37;;;;;;;1.77;0.40;;;11.40;44.50;;;;;;5012807;28;20053;-78
2021/04/27 03:02:04;;;;;;;1.98;0.60;;;11.30;44.50;;;;;;5042353;28;20566;-78
2021/04/27 03:04:30;;;;;;;4.63;0.35;;;11.30;44.50;;;;;;5011562;28;20033;-79
2021/04/27 03:06:56;;;;;;;0.32;0.22;;;11.30;44.60;;;;;;4976060;28;20064;-77
2021/04/27 03:09:22;;;;;;;0.63;0.22;;;11.20;44.60;;;;;;5012757;28;20034;-78
2021/04/27 03:11:48;;;;;;;1.27;0.70;;;11.20;44.80;;;;;;5004902;28;20034;-77
2021/04/27 03:14:14;;;;;;;1.02;0.55;;;11.10;45.00;;;;;;5012394;28;20037;-78
2021/04/27 03:16:40;;;;;;;0.85;0.50;;;11.00;45.10;;;;;;5012463;28;20030;-78
2021/04/27 03:19:06;;;;;;;0.43;0.30;;;11.00;45.20;;;;;;4990247;28;20039;-77
2021/04/27 03:21:32;;;;;;;0.90;0.40;;;10.90;45.30;;;;;;5004010;28;20033;-77
2021/04/27 03:23:58;;;;;;;1.45;0.88;;;10.90;45.30;;;;;;5012230;28;20030;-78
2021/04/27 03:26:24;;;;;;;0.17;0.03;;;10.80;45.30;;;;;;5012068;28;20037;-78
2021/04/27 03:28:50;;;;;;;2.63;0.60;;;10.80;45.40;;;;;;5012416;28;20113;-77
2021/04/27 03:31:16;;;;;;;3.50;0.38;;;10.80;45.50;;;;;;5011858;28;20038;-78
2021/04/27 03:33:43;;;;;;;3.55;1.35;;;10.80;45.60;;;;;;5011004;28;20037;-78
2021/04/27 03:36:09;;;;;;;0.68;0.50;;;10.70;45.70;;;;;;5010833;28;20042;-78
2021/04/27 03:38:35;;;;;;;0.82;0.20;;;10.70;45.60;;;;;;5013310;28;20468;-77
2021/04/27 03:41:01;;;;;;;0.65;0.20;;;10.70;45.90;;;;;;5037428;28;20034;-79
2021/04/27 03:43:27;;;;;;;0.17;0.10;;;10.60;46.00;;;;;;5010637;28;20475;-78
2021/04/27 03:45:53;;;;;;;0.13;0.03;;;10.60;46.10;;;;;;5008188;28;20050;-77
2021/04/27 03:48:20;;;;;;;0.75;0.20;;;10.60;46.20;;;;;;5011870;28;20042;-78
2021/04/27 03:50:46;;;;;;;0.98;0.43;;;10.50;46.30;;;;;;4994074;28;20030;-78
2021/04/27 03:53:12;;;;;;;3.92;1.48;;;10.50;46.40;;;;;;5013153;28;20038;-78
2021/04/27 03:55:39;;;;;;;1.90;0.88;;;10.50;46.30;;;;;;5010558;28;20403;-78
2021/04/27 03:58:05;;;;;;;0.82;0.45;;;10.50;46.30;;;;;;5010019;28;20061;-78
2021/04/27 04:00:31;;;;;;;0.40;0.30;;;10.40;46.40;;;;;;5008462;28;20479;-78
2021/04/27 04:02:57;;;;;;;1.90;0.70;;;10.40;46.40;;;;;;5010337;28;20034;-78
2021/04/27 04:05:23;;;;;;;1.45;0.93;;;10.40;46.40;;;;;;5012403;28;20030;-77
2021/04/27 04:07:49;;;;;;;2.45;0.57;;;10.40;46.30;;;;;;5034772;28;20483;-78
2021/04/27 04:10:16;;;;;;;0.20;0.00;;;10.50;46.40;;;;;;5011025;28;20415;-78
2021/04/27 04:12:42;;;;;;;1.55;0.65;;;10.50;46.40;;;;;;5010971;28;20034;-78
2021/04/27 04:15:11;;;;;;;5.85;1.00;;;10.50;46.50;;;;;;5009345;28;20041;-78
2021/04/27 04:17:38;;;;;;;0.20;0.03;;;10.40;46.50;;;;;;5009382;28;20025;-77
2021/04/27 04:20:08;;;;;;;4.97;0.90;;;10.40;46.60;;;;;;5029572;28;20034;-78
2021/04/27 04:22:35;;;;;;;1.85;0.57;;;10.40;46.70;;;;;;4992454;28;20034;-78
2021/04/27 04:25:01;;;;;;;1.10;0.73;;;10.30;46.80;;;;;;5007031;28;20498;-79
2021/04/27 04:27:28;;;;;;;1.20;0.60;;;10.30;46.90;;;;;;5010732;28;20030;-78
2021/04/27 04:29:54;;;;;;;0.95;0.43;;;10.30;46.90;;;;;;5010201;28;20039;-78
2021/04/27 04:32:20;;;;;;;1.33;0.43;;;10.20;47.50;;;;;;5011667;28;20029;-77
2021/04/27 04:34:46;;;;;;;1.25;0.43;;;10.20;46.90;;;;;;5008290;28;20394;-79
2021/04/27 04:37:12;;;;;;;0.60;0.20;;;10.20;47.00;;;;;;5009641;28;20041;-79
2021/04/27 04:39:38;;;;;;;0.52;0.17;;;10.20;47.00;;;;;;5009387;28;20045;-78
2021/04/27 04:42:04;;;;;;;0.88;0.20;;;10.20;47.10;;;;;;5008902;28;20034;-79
2021/04/27 04:44:30;;;;;;;2.22;0.68;;;10.20;47.10;;;;;;5011156;28;20041;-79
2021/04/27 04:46:57;;;;;;;2.38;1.02;;;10.20;47.20;;;;;;5010336;28;20037;-79
2021/04/27 04:49:24;;;;;;;7.97;0.60;;;10.10;47.20;;;;;;5007911;28;20415;-78
2021/04/27 04:51:53;;;;;;;0.77;0.30;;;10.10;47.30;;;;;;4991616;28;20018;-78
2021/04/27 04:54:20;;;;;;;2.53;1.00;;;10.10;47.40;;;;;;5004810;28;20026;-78
2021/04/27 04:56:47;;;;;;;3.80;0.80;;;10.00;47.50;;;;;;5009109;28;20029;-78
2021/04/27 04:59:13;;;;;;;2.50;0.88;;;10.00;47.50;;;;;;5043109;28;20395;-78
2021/04/27 05:01:39;;;;;;;0.50;0.20;;;10.00;47.60;;;;;;5007402;28;20041;-78
2021/04/27 05:04:05;;;;;;;2.45;0.80;;;10.00;47.50;;;;;;5008205;28;20048;-79
2021/04/27 05:06:36;;;;;;;1.67;0.75;;;10.00;47.70;;;;;;4993129;28;20033;-79
2021/04/27 05:09:05;;;;;;;1.10;0.47;;;9.90;47.90;;;;;;5009634;28;20042;-79
2021/04/27 05:11:32;;;;;;;0.95;0.43;;;9.90;47.90;;;;;;5009558;28;20495;-80
2021/04/27 05:13:58;;;;;;;8.68;0.75;;;9.90;47.90;;;;;;5028499;28;20038;-78
2021/04/27 05:16:24;;;;;;;0.70;0.30;;;9.90;47.90;;;;;;5009212;28;20049;-78
2021/04/27 05:18:51;;;;;;;2.60;0.93;;;9.90;47.90;;;;;;4991916;28;20364;-79
2021/04/27 05:21:17;;;;;;;0.38;0.20;;;9.90;48.00;;;;;;5008772;28;20034;-80
2021/04/27 05:23:44;;;;;;;2.28;0.40;;;9.90;48.30;;;;;;5010428;28;20034;-78
2021/04/27 05:26:10;;;;;;;0.90;0.45;;;9.80;48.40;;;;;;5011037;28;20475;-78
2021/04/27 05:28:36;;;;;;;1.15;0.55;;;9.80;48.50;;;;;;5008472;28;20061;-79
2021/04/27 05:31:03;;;;;;;1.00;0.32;;;9.80;48.50;;;;;;5009241;28;20033;-78
2021/04/27 05:33:29;;;;;;;0.80;0.35;;;9.90;48.60;;;;;;5009666;28;20044;-78
2021/04/27 05:35:55;;;;;;;1.88;0.50;;;9.90;48.60;;;;;;5009281;28;20046;-78
2021/04/27 05:38:21;;;;;;;0.20;0.10;;;10.00;48.70;;;;;;5011868;28;20038;-77
2021/04/27 05:40:47;;;;;;;5.00;1.08;;;10.00;48.70;;;;;;5029027;28;20026;-77
2021/04/27 05:43:14;;;;;;;2.33;0.77;;;10.10;48.70;;;;;;5007158;28;20053;-78
2021/04/27 05:45:40;;;;;;;6.15;1.15;;;10.20;48.70;;;;;;5020381;28;20051;-78
2021/04/27 05:48:06;;;;;;;0.55;0.40;;;10.40;48.70;;;;;;5009821;28;20034;-79
2021/04/27 05:50:33;;;;;;;3.42;0.75;;;10.50;48.50;;;;;;5010657;28;20030;-79
2021/04/27 05:52:59;;;;;;;1.40;0.85;;;10.70;48.30;;;;;;4994029;28;20034;-78
2021/04/27 05:55:25;;;;;;;0.85;0.55;;;10.90;48.30;;;;;;5007211;28;20037;-78
2021/04/27 05:57:51;;;;;;;0.57;0.20;;;11.00;48.20;;;;;;5008930;28;20053;-79
2021/04/27 06:00:18;;;;;;;1.02;0.45;;;11.20;48.10;;;;;;4989898;28;20525;-78
2021/04/27 06:02:44;;;;;;;1.92;0.43;;;11.20;48.10;;;;;;5008921;28;20048;-79
2021/04/27 06:05:11;;;;;;;2.28;0.68;;;11.40;48.10;;;;;;5008980;28;20053;-79
2021/04/27 06:07:37;;;;;;;0.85;0.82;;;11.50;48.10;;;;;;5008647;28;20045;-78
2021/04/27 06:10:04;;;;;;;1.95;0.70;;;11.50;48.10;;;;;;4991316;28;20034;-79
2021/04/27 06:12:31;;;;;;;2.05;0.82;;;11.60;48.10;;;;;;5008356;28;20474;-80
2021/04/27 06:14:57;;;;;;;0.90;0.57;;;11.70;48.10;;;;;;4992931;28;20045;-78
2021/04/27 06:17:23;;;;;;;2.63;0.80;;;11.80;48.10;;;;;;5010556;28;20038;-79
2021/04/27 06:19:49;;;;;;;0.85;0.38;;;11.90;47.90;;;;;;5026512;28;20053;-80
2021/04/27 06:22:15;;;;;;;2.38;0.50;;;12.10;47.60;;;;;;5007469;28;20486;-77
2021/04/27 06:24:41;;;;;;;1.95;0.90;;;12.30;47.60;;;;;;5030961;28;20033;-79
2021/04/27 06:27:07;;;;;;;1.13;0.55;;;12.30;47.70;;;;;;4989833;28;20399;-78
2021/04/27 06:29:34;;;;;;;9.68;0.60;;;12.20;47.80;;;;;;5017853;28;20053;-79
2021/04/27 06:32:00;;;;;;;1.17;0.40;;;12.20;48.00;;;;;;5010261;28;20501;-78
2021/04/27 06:34:26;;;;;;;0.98;0.38;;;12.20;48.10;;;;;;5006032;28;20049;-80
2021/04/27 06:36:52;;;;;;;1.23;0.73;;;12.20;48.10;;;;;;5011767;28;20044;-77
2021/04/27 06:39:18;;;;;;;0.70;0.38;;;12.20;48.20;;;;;;5010522;28;20209;-78
2021/04/27 06:41:44;;;;;;;2.30;0.80;;;12.30;48.30;;;;;;4988712;28;20487;-78
2021/04/27 06:44:10;;;;;;;0.75;0.45;;;12.30;48.30;;;;;;5017318;28;20042;-78
2021/04/27 06:46:37;;;;;;;2.35;1.15;;;12.30;48.30;;;;;;5010991;28;20061;-79
2021/04/27 06:49:03;;;;;;;1.52;0.25;;;12.40;48.40;;;;;;5042979;28;20038;-79
2021/04/27 06:51:29;;;;;;;0.90;0.30;;;12.60;48.20;;;;;;5012186;28;20506;-80
2021/04/27 06:53:55;;;;;;;0.05;0.00;;;12.70;48.10;;;;;;5013392;28;20398;-78
2021/04/27 06:56:21;;;;;;;2.08;1.15;;;12.70;48.00;;;;;;5012823;28;20094;-78
2021/04/27 06:58:47;;;;;;;2.08;0.70;;;12.70;48.10;;;;;;5035201;28;20041;-78
2021/04/27 07:01:13;;;;;;;3.38;0.95;;;12.80;48.10;;;;;;5010788;28;20030;-78
2021/04/27 07:03:43;;;;;;;1.85;0.45;;;12.80;47.90;;;;;;5010883;28;20040;-79
2021/04/27 07:06:09;;;;;;;3.58;0.85;;;13.00;47.70;;;;;;5007339;28;20026;-78
2021/04/27 07:08:35;;;;;;;2.28;0.55;;;13.20;47.40;;;;;;5007595;28;20034;-78
2021/04/27 07:11:01;;;;;;;1.73;0.50;;;13.40;47.20;;;;;;5007096;28;20490;-79
2021/04/27 07:13:29;;;;;;;2.75;0.65;;;13.60;46.90;;;;;;5008094;28;20053;-79
2021/04/27 07:15:55;;;;;;;2.35;0.90;;;13.80;46.70;;;;;;5007221;28;20030;-79
2021/04/27 07:18:21;;;;;;;1.35;0.60;;;13.90;46.50;;;;;;5025888;28;20030;-81
2021/04/27 07:20:48;;;;;;;4.65;0.40;;;14.00;46.40;;;;;;5011653;28;20034;-80
2021/04/27 07:23:14;;;;;;;2.63;1.05;;;14.20;46.20;;;;;;5012047;28;20045;-78
2021/04/27 07:25:40;;;;;;;1.35;0.38;;;14.30;46.10;;;;;;4993070;28;20029;-79
2021/04/27 07:28:06;;;;;;;1.67;0.65;;;14.30;46.00;;;;;;5010460;28;20037;-78
2021/04/27 07:30:33;;;;;;;0.95;0.30;;;14.40;45.90;;;;;;5008641;28;20030;-77
2021/04/27 07:32:59;;;;;;;0.00;0.00;;;14.40;45.80;;;;;;5011700;28;20030;-78
2021/04/27 07:35:25;;;;;;;0.10;0.00;;;14.50;45.70;;;;;;5011251;28;20042;-78
2021/04/27 07:37:51;;;;;;;3.83;0.80;;;14.60;45.70;;;;;;5012822;28;20030;-78
2021/04/27 07:40:18;;;;;;;0.63;0.38;;;14.60;45.60;;;;;;5011458;28;20040;-78
2021/04/27 07:42:44;;;;;;;1.85;0.60;;;14.70;45.50;;;;;;5010796;28;20030;-78
2021/04/27 07:45:11;;;;;;;2.92;1.15;;;14.90;45.30;;;;;;5011721;28;20061;-78
2021/04/27 07:47:37;;;;;;;0.57;0.20;;;15.00;45.10;;;;;;5011013;28;20033;-79
2021/04/27 07:50:05;;;;;;;1.88;0.50;;;15.10;44.90;;;;;;5011402;28;20037;-79
2021/04/27 07:52:33;;;;;;;0.88;0.30;;;15.20;44.80;;;;;;5010393;28;20055;-78
2021/04/27 07:55:00;;;;;;;0.57;0.32;;;15.30;44.60;;;;;;5011757;28;20044;-78
2021/04/27 07:57:26;;;;;;;5.10;1.05;;;15.40;44.50;;;;;;5011958;28;20021;-78
2021/04/27 07:59:52;;;;;;;1.95;0.70;;;15.60;44.30;;;;;;5011465;28;20030;-78
2021/04/27 08:02:18;;;;;;;4.30;1.05;;;15.70;44.00;;;;;;5012766;28;20064;-78
2021/04/27 08:04:46;;;;;;;1.17;0.35;;;15.80;43.90;;;;;;5011280;28;20037;-77
2021/04/27 08:07:13;;;;;;;5.88;0.47;;;16.00;43.70;;;;;;5011404;28;20475;-78
2021/04/27 08:09:39;;;;;;;0.90;0.45;;;16.00;43.60;;;;;;5010158;28;21315;-78
2021/04/27 08:12:05;;;;;;;1.38;0.38;;;16.00;43.50;;;;;;5011568;28;20060;-78
2021/04/27 08:14:32;;;;;;;4.22;0.70;;;16.10;43.50;;;;;;5012211;28;20038;-79
2021/04/27 08:16:59;;;;;;;2.85;0.65;;;16.20;43.40;;;;;;5010301;28;20407;-78
2021/04/27 08:19:25;;;;;;;2.20;0.80;;;16.30;43.20;;;;;;5007141;28;20038;-79
2021/04/27 08:21:51;;;;;;;0.55;0.38;;;16.60;43.00;;;;;;5010075;28;20061;-78
2021/04/27 08:24:17;;;;;;;3.03;0.70;;;16.70;42.70;;;;;;4986857;28;20037;-78
2021/04/27 08:26:43;;;;;;;1.42;0.85;;;16.80;42.50;;;;;;5011326;28;20053;-77
2021/04/27 08:29:09;;;;;;;2.47;0.73;;;16.90;43.10;;;;;;5035137;28;20049;-78
2021/04/27 08:31:36;;;;;;;2.90;0.80;;;17.00;42.40;;;;;;5010354;28;20034;-78
2021/04/27 08:34:02;;;;;;;1.08;0.20;;;17.20;42.20;;;;;;5008776;28;20038;-79
2021/04/27 08:36:28;;;;;;;1.60;0.70;;;17.40;41.90;;;;;;5009108;28;20029;-79
2021/04/27 08:38:54;;;;;;;2.70;0.70;;;17.50;41.80;;;;;;5010128;28;20037;-78
2021/04/27 08:41:22;;;;;;;1.58;0.63;;;17.60;41.70;;;;;;5010671;28;20030;-79
2021/04/27 08:43:48;;;;;;;1.40;0.50;;;17.80;41.40;;;;;;5011560;28;20042;-79
2021/04/27 08:46:14;;;;;;;1.23;0.40;;;18.00;41.30;;;;;;5006319;28;20042;-78
2021/04/27 08:48:41;;;;;;;1.63;0.70;;;18.10;41.00;;;;;;5007382;28;20034;-78
2021/04/27 08:51:08;;;;;;;2.17;0.63;;;18.20;40.80;;;;;;5007864;28;20076;-79
2021/04/27 08:53:34;;;;;;;0.90;0.52;;;18.30;40.70;;;;;;5009681;28;20026;-79
2021/04/27 08:56:01;;;;;;;1.23;0.50;;;18.40;40.50;;;;;;5012395;28;20030;-78
2021/04/27 08:58:27;;;;;;;3.13;0.68;;;18.40;40.80;;;;;;4990656;28;20030;-77
2021/04/27 09:00:55;;;;;;;7.65;1.17;;;18.40;40.50;;;;;;5033107;28;20053;-78
2021/04/27 09:03:21;;;;;;;1.65;0.57;;;18.50;40.40;;;;;;5007633;28;20018;-79
2021/04/27 09:05:47;;;;;;;1.30;0.40;;;18.60;40.20;;;;;;4971299;28;20472;-79
2021/04/27 09:08:13;;;;;;;2.80;0.85;;;18.90;39.90;;;;;;5034527;28;20038;-77
2021/04/27 09:10:45;;;;;;;1.98;0.45;;;19.00;39.70;;;;;;5015322;28;20245;-78
2021/04/27 09:13:16;;;;;;;1.60;0.47;;;19.10;39.60;;;;;;5008068;28;20537;-77
2021/04/27 09:15:44;;;;;;;11.55;1.35;;;19.40;39.30;;;;;;5009815;28;20034;-77
2021/04/27 09:18:34;;;;;;;1.33;0.40;;;19.40;39.10;;;;;;5009527;28;20026;-77
2021/04/27 09:21:10;;;;;;;1.13;0.45;;;19.60;39.10;;;;;;5019449;28;20033;-77
2021/04/27 09:23:37;;;;;;;2.17;0.30;;;19.90;38.80;;;;;;5009606;28;20034;-77
2021/04/27 09:26:13;;;;;;;3.53;0.60;;;20.00;38.50;;;;;;5029848;28;20029;-79
2021/04/27 09:28:46;;;;;;;2.58;0.98;;;20.10;38.50;;;;;;5010067;28;20049;-77
2021/04/27 09:31:32;;;;;;;1.60;0.40;;;20.10;38.30;;;;;;4976363;28;20490;-78
2021/04/27 09:34:17;;;;;;;5.43;1.00;;;20.20;38.20;;;;;;5010408;28;20054;-78
2021/04/27 09:36:43;;;;;;;1.42;0.43;;;20.20;38.10;;;;;;5008388;28;20034;-82
2021/04/27 09:39:09;;;;;;;2.47;1.17;;;20.30;38.10;;;;;;5007646;28;20396;-79
2021/04/27 09:41:35;;;;;;;2.40;0.77;;;20.40;37.70;;;;;;5009468;28;20038;-78
2021/04/27 09:44:02;;;;;;;1.40;0.65;;;20.50;37.60;;;;;;5035830;28;20036;-79
2021/04/27 09:46:28;;;;;;;1.42;0.43;;;20.50;37.40;;;;;;5007538;28;20038;-78
2021/04/27 09:49:00;;;;;;;8.27;0.77;;;20.50;37.30;;;;;;5007858;28;20390;-78
2021/04/27 09:51:36;;;;;;;3.00;0.43;;;20.60;37.20;;;;;;5008196;28;20037;-80
2021/04/27 09:54:03;;;;;;;2.22;0.40;;;20.60;36.90;;;;;;5009940;28;20030;-79
2021/04/27 09:56:39;;;;;;;1.65;0.57;;;20.60;36.80;;;;;;5009800;28;20406;-81
2021/04/27 09:59:11;;;;;;;1.30;0.28;;;20.60;36.60;;;;;;5028749;28;20514;-80
2021/04/27 10:01:38;;;;;;;3.25;0.68;;;20.60;36.40;;;;;;5003301;28;20038;-78
2021/04/27 10:04:04;;;;;;;2.75;0.45;;;20.70;36.30;;;;;;5006652;28;20021;-79
2021/04/27 10:06:30;;;;;;;0.40;0.03;;;20.70;36.00;;;;;;5010416;28;20044;-81
2021/04/27 10:08:56;;;;;;;1.92;0.47;;;20.80;35.90;;;;;;5011897;28;20050;-83
2021/04/27 10:11:25;;;;;;;1.10;0.22;;;20.90;35.60;;;;;;5014551;28;20030;-84
2021/04/27 10:13:51;;;;;;;2.13;0.60;;;21.00;35.40;;;;;;5014312;28;20349;-83
2021/04/27 10:16:17;;;;;;;2.47;0.55;;;21.00;35.50;;;;;;5011025;28;20038;-83
2021/04/27 10:18:43;;;;;;;1.92;0.63;;;21.20;35.30;;;;;;4976923;28;20037;-85
2021/04/27 10:21:11;;;;;;;0.88;0.50;;;21.20;35.10;;;;;;4977470;28;20491;-78
2021/04/27 10:23:40;;;;;;;0.52;0.10;;;21.30;35.00;;;;;;5013500;28;20033;-84
2021/04/27 10:26:07;;;;;;;0.73;0.20;;;21.30;34.90;;;;;;5011761;28;20392;-84
2021/04/27 10:28:59;;;;;;;2.95;1.05;;;21.30;34.70;;;;;;5009855;28;20033;-78
2021/04/27 10:31:26;;;;;;;1.88;0.45;;;21.40;34.70;;;;;;5012095;28;20049;-77
2021/04/27 10:34:15;;;;;;;0.63;0.20;;;21.50;34.10;;;;;;4994625;28;20026;-82
2021/04/27 10:36:50;;;;;;;4.57;0.85;;;21.60;33.90;;;;;;4989913;28;20049;-78
2021/04/27 10:39:17;;;;;;;0.10;0.10;;;21.60;33.80;;;;;;5011880;28;20360;-77
2021/04/27 10:41:44;;;;;;;1.02;0.60;;;21.70;33.70;;;;;;5010194;28;20026;-81
2021/04/27 10:44:11;;;;;;;1.60;0.38;;;21.60;33.50;;;;;;5026264;28;20049;-90
2021/04/27 10:46:37;;;;;;;0.85;0.30;;;21.70;33.40;;;;;;4992827;28;20510;-83
2021/04/27 10:49:20;;;;;;;1.33;0.63;;;21.70;32.70;;;;;;5011759;28;20046;-89
2021/04/27 10:51:47;;;;;;;1.65;0.38;;;21.60;32.40;;;;;;5032439;28;20026;-85
2021/04/27 10:54:16;;;;;;;0.75;0.20;;;21.60;32.00;;;;;;4993215;28;20030;-83
2021/04/27 10:56:46;;;;;;;3.00;0.57;;;21.60;31.80;;;;;;5012419;28;20037;-87
2021/04/27 10:59:20;;;;;;;0.10;0.00;;;21.70;31.60;;;;;;5027004;28;20042;-83
2021/04/27 11:01:47;;;;;;;0.40;0.30;;;21.80;31.20;;;;;;5029381;28;20030;-80
2021/04/27 11:04:26;;;;;;;0.75;0.10;;;21.80;30.70;;;;;;5009451;28;20033;-85
2021/04/27 11:07:20;;;;;;;0.85;0.10;;;21.80;30.60;;;;;;5012336;28;20026;-86
2021/04/27 11:09:59;;;;;;;0.10;0.00;;;21.80;30.20;;;;;;5019069;28;20050;-83
2021/04/27 11:12:36;;;;;;;2.97;0.28;;;21.90;30.10;;;;;;5013057;28;20098;-82
2021/04/27 11:15:05;;;;;;;4.88;0.45;;;21.90;30.20;;;;;;5027833;28;20022;-81
2021/04/27 11:17:38;;;;;;;0.60;0.38;;;21.90;30.10;;;;;;4993057;28;20038;-83
2021/04/27 11:20:08;;;;;;;0.68;0.35;;;22.10;30.00;;;;;;5021560;28;20391;-80
2021/04/27 11:22:36;;;;;;;1.05;0.30;;;22.10;29.70;;;;;;5011173;28;20026;-78
2021/04/27 11:25:06;;;;;;;0.20;0.10;;;22.10;29.60;;;;;;4995079;28;20034;-81
2021/04/27 11:27:34;;;;;;;2.88;0.73;;;22.10;30.00;;;;;;5010445;28;20547;-84
2021/04/27 11:30:09;;;;;;;0.57;0.10;;;22.00;29.70;;;;;;5010874;28;20474;-85
2021/04/27 11:32:37;;;;;;;0.47;0.30;;;22.20;29.60;;;;;;5009634;28;20403;-83
2021/04/27 11:35:06;;;;;;;3.40;0.43;;;22.30;29.40;;;;;;5016811;28;20042;-83
2021/04/27 11:37:35;;;;;;;1.98;0.85;;;22.30;29.40;;;;;;5008413;28;20474;-82
2021/04/27 11:40:22;;;;;;;1.23;0.60;;;22.40;29.30;;;;;;5008148;28;20026;-81
2021/04/27 11:43:14;;;;;;;1.17;0.60;;;22.60;29.20;;;;;;5031087;28;20034;-78
2021/04/27 11:45:45;;;;;;;0.35;0.25;;;22.70;29.00;;;;;;5000468;28;20090;-79
2021/04/27 11:48:12;;;;;;;1.85;0.40;;;22.80;28.70;;;;;;5010513;28;20034;-80
2021/04/27 11:50:38;;;;;;;2.45;0.75;;;22.80;28.60;;;;;;5010568;28;20038;-79
2021/04/27 11:53:06;;;;;;;0.63;0.10;;;23.00;28.60;;;;;;5032155;28;20033;-79
2021/04/27 11:55:36;;;;;;;0.38;0.30;;;23.00;28.40;;;;;;5009582;28;20390;-78
2021/04/27 11:58:05;;;;;;;1.27;0.10;;;23.00;28.20;;;;;;5010298;28;20025;-79
2021/04/27 12:00:31;;;;;;;0.43;0.20;;;22.90;28.20;;;;;;5009259;28;20045;-78
2021/04/27 12:02:57;;;;;;;3.00;0.22;;;23.00;28.30;;;;;;5011197;28;20509;-78
2021/04/27 12:05:24;;;;;;;0.38;0.10;;;23.20;28.20;;;;;;4995336;28;20037;-79
2021/04/27 12:07:50;;;;;;;2.13;0.30;;;23.30;28.10;;;;;;5010827;28;20049;-80
2021/04/27 12:10:16;;;;;;;6.20;0.45;;;23.30;28.00;;;;;;5005871;28;20045;-79
2021/04/27 12:12:49;;;;;;;0.22;0.20;;;23.30;27.70;;;;;;5011382;28;20311;-78
2021/04/27 12:15:15;;;;;;;1.15;0.25;;;23.20;27.60;;;;;;5007801;28;20025;-79
2021/04/27 12:17:41;;;;;;;1.45;0.30;;;23.20;27.30;;;;;;4992732;28;20383;-79
2021/04/27 12:20:13;;;;;;;1.48;0.30;;;23.20;27.10;;;;;;5035411;28;20049;-79
2021/04/27 12:22:45;;;;;;;3.03;0.55;;;23.20;27.10;;;;;;5010483;28;20360;-81
2021/04/27 12:25:29;;;;;;;0.20;0.10;;;23.30;27.00;;;;;;5005852;28;20034;-82
2021/04/27 12:28:04;;;;;;;4.95;0.30;;;23.40;27.00;;;;;;5008730;28;20026;-80
2021/04/27 12:30:34;;;;;;;0.43;0.10;;;23.40;26.70;;;;;;5008230;28;20061;-80
2021/04/27 12:33:10;;;;;;;0.93;0.38;;;23.50;26.70;;;;;;4970922;28;20038;-79
2021/04/27 12:35:38;;;;;;;1.70;0.45;;;23.50;26.50;;;;;;5009645;28;20034;-80
2021/04/27 12:38:12;;;;;;;1.10;0.45;;;23.60;26.50;;;;;;5012432;28;20360;-80
2021/04/27 12:40:43;;;;;;;1.38;0.28;;;23.70;26.00;;;;;;5010352;28;20387;-79
2021/04/27 12:43:13;;;;;;;0.47;0.22;;;23.60;26.10;;;;;;5007392;28;20033;-83
2021/04/27 12:46:00;;;;;;;1.73;0.20;;;23.60;25.90;;;;;;5009238;28;20391;-80
2021/04/27 12:48:29;;;;;;;3.75;0.55;;;23.60;25.90;;;;;;5001434;28;20022;-81
2021/04/27 12:51:00;;;;;;;1.17;0.50;;;23.70;25.90;;;;;;4993335;28;20094;-79
2021/04/27 12:53:43;;;;;;;1.13;0.30;;;23.80;26.00;;;;;;4994237;28;20030;-81